METAR Data
IDs: Format: Raw Decoded Include TAF

Data at: 0237 UTC 18 Jun 2019

PAPG 180203Z 33003KT 10SM -RA FEW025 SCT034 OVC065 13/12 A2981 RMK AO2 P0001
PAPG 180156Z 00000KT 10SM -RA SCT011 BKN019 OVC065 13/12 A2981 RMK AO2 SLP099 P0000 T01280117
PAPG 180118Z 12003KT 10SM -RA SCT006 BKN017 OVC065 14/11 A2981 RMK AO2 P0000
PAPG 180103Z 20003KT 10SM -RA OVC065 14/11 A2980 RMK AO2 P0000
PAPG 180056Z 00000KT 7SM -RA SCT006 BKN015 OVC050 13/12 A2980 RMK AO2 SLP095 P0021 T01330117
PAPG 180043Z 23006G14KT 4SM -RA BR SCT003 BKN011 OVC017 13/12 A2980 RMK AO2 P0020
PAPG 180035Z 22007G14KT 4SM -RA BR SCT003 BKN011 OVC017 13/12 A2980 RMK P0020
PAPG 180021Z 26004KT 3SM RA BR BKN003 OVC007 12/12 A2980 RMK AO2 P0016
PAPG 180013Z 10004KT 1 3/4SM +RA BR OVC003 12/12 A2980 RMK AO2 VIS 1 1/4V4 CIG 002V006 P0012
PAPG 172356Z 09004KT 3SM -RA BR BKN005 OVC011 12/12 A2979 RMK P0008
PAPG 172303Z 00000KT 6SM -RA BR OVC005 12/12 A2980 RMK AO2 CIG 003V009 P0001
PAPG 172256Z 00000KT 3SM -RA BR BKN007 OVC011 12/12 A2980 RMK P0005
PAPG 172156Z 03003KT 4SM -RA BR BKN008 OVC013 13/12 A2980 RMK P0005
PAPG 172056Z 35004KT 7SM -RA FEW007 BKN024 OVC055 14/13 A2982 RMK P0001
PAPG 172002Z 35004KT 10SM -RA SCT004 OVC015 13/12 A2983 RMK P0000
PAPG 171956Z 04004KT 3SM -RS BR SCT004 OVC014 13/12 A2984 RMK P0018
PAPG 171856Z 11006KT 10SM -RA BCFG SCT008 BKN015 OVC021 13/12 A2984 RMK P0002
PAPG 171816Z 06005KT 10SM -RA BCFG BKN004 BKN012 OVC038 12/12 A2984 RMK P0002
PAPG 171800Z 06004KT 10SM -RA BCFG FEW004 BKN008 OVC032 12/12 A2984 RMK P0001
PAPG 171700Z 00000KT 7SM -RA BCFG FEW006 SCT014 OVC019 12/12 A2984 RMK P0001
PAPG 171400Z 06003KT 5SM -RA BR FEW005 SCT021 BKN032 12/11 A2985 RMK P0001
PAPG 170554Z 00000KT 10SM FEW014 SCT027 OVC070 15/12 A2992 RMK RAE24
PAPG 170454Z 00000KT 10SM -RA FEW012 SCT027 OVC055 14/13 A2994 RMK RAB24 SLP142 P0000 T01390133
PAPG 170354Z VRB03KT 10SM FEW016 BKN041 OVC055 14/13 A2996 RMK RAE02B20E30 SLP147 P0000 T01440133
PAPG 170254Z 21003KT 10SM -RA FEW013 SCT038 OVC060 15/13 A2997 RMK RAE0159 B48 SLP150 P0000 60000 T01500133 58008
PAPG 170154Z 29004KT 10SM -RA FEW006 BKN045 OVC055 14/13 A2998 RMK RAB07 P0000
PAPG 170054Z 10804KT 10SM FEW019 BKN038 OVC050 17/12 A2999 RMK VCSH SW
PAPG 162354Z VRB05KT 10SM FEW018 BKN038 OVC070 18/12 A3000
PAPG 162254Z 33003KT 10SM FEW018 SCT034 BKN050 17/12 A3001
PAPG 162156Z 20007KT 10SM FEW027 BKN050 OVC055 17/11 A3001 RMK AO2 SLP166 T01670111
PAPG 162056Z VRB04KT 10SM SCT019 BKN026 OVC100 17/12 A3002 RMK AO2 SLP169 60000 T01670122 58005
PAPG 161956Z 00000KT 10SM SCT018 BKN025 OVC034 16/13 A3003 RMK AO2 SLP173 T0160128
PAPG 161856Z 35003KT 10SM FEW005 BKN024 OVC033 14/12 A3003 RMK AO2 RAB13E24 SLP172 P0000 T01390122
PAPG 161756Z 01003KT 10SM FEW013 OVC022 13/12 A3004 RMK AO2 SLP174 60002 T01280117 10133 20177 50004
PAPG 161739Z 05004KT 10SM FEW006 SCT013 OVC025 13/12 A3003 RMK AO2
PAPG 161656Z 01003KT 10SM BKN020 OVC029 13/12 A3004 RMK AO2 SLP174 T01280117
PAPG 161556Z 31003KT 10SM FEW003 OVC019 12/12 A3003 RMK AO2 SLP173 T01220117
PAPG 161456Z 00000KT 10SM SCT003 OVC021 12/12 A3002 RMK AO2 RAB01E45 SLP170 P0001 60002T01170117 57001